createdAt,value
2022-08-17T00:01:00.662Z,69.76
2022-08-17T00:02:21.245Z,69.20
2022-08-17T00:03:36.144Z,68.87
2022-08-17T00:04:39.028Z,67.12
2022-08-17T00:06:00.882Z,67.30
2022-08-17T00:07:03.929Z,67.63
2022-08-17T00:08:07.477Z,67.50
2022-08-17T00:09:10.553Z,67.30
2022-08-17T00:10:21.877Z,67.82
2022-08-17T00:11:34.244Z,68.19
2022-08-17T00:12:51.298Z,68.16
2022-08-17T00:14:00.686Z,67.95
2022-08-17T00:15:05.443Z,67.90
2022-08-17T00:16:13.479Z,67.74
2022-08-17T00:17:16.490Z,67.71
2022-08-17T00:19:01.196Z,67.38
2022-08-17T00:19:43.439Z,67.09
2022-08-17T00:20:46.633Z,66.81
2022-08-17T00:22:31.323Z,66.88
2022-08-17T00:23:17.674Z,67.00
2022-08-17T00:24:20.808Z,67.48
2022-08-17T00:25:23.796Z,67.91
2022-08-17T00:26:34.563Z,68.14
2022-08-17T00:27:48.091Z,68.09
2022-08-17T00:28:52.342Z,68.83
2022-08-17T00:29:55.366Z,68.43
2022-08-17T00:30:59.543Z,68.34
2022-08-17T00:33:14.381Z,68.38
2022-08-17T00:33:31.478Z,68.24
2022-08-17T00:34:34.791Z,68.09
2022-08-17T00:35:39.561Z,68.09
2022-08-17T00:36:42.574Z,68.16
2022-08-17T00:37:45.635Z,68.43
2022-08-17T00:38:49.802Z,68.21
2022-08-17T00:39:52.763Z,68.76
2022-08-17T00:41:06.109Z,68.79
2022-08-17T00:42:17.916Z,68.52
2022-08-17T00:43:36.758Z,68.18
2022-08-17T00:44:39.660Z,68.26
2022-08-17T00:45:42.686Z,68.21
2022-08-17T00:46:48.374Z,68.33
2022-08-17T00:47:51.368Z,68.18
2022-08-17T00:48:55.362Z,68.33
2022-08-17T00:49:58.345Z,68.42
2022-08-17T00:51:16.368Z,68.42
2022-08-17T00:52:25.940Z,68.87
2022-08-17T00:53:32.144Z,68.66
2022-08-17T00:54:41.047Z,68.91
2022-08-17T00:55:45.117Z,68.73
2022-08-17T00:56:51.922Z,68.32
2022-08-17T00:57:59.114Z,68.00
2022-08-17T00:59:07.593Z,67.53
2022-08-17T01:00:16.690Z,67.57
2022-08-17T01:01:21.201Z,67.58
2022-08-17T01:02:25.181Z,67.82
2022-08-17T01:03:30.172Z,67.98
2022-08-17T01:04:33.774Z,68.23
2022-08-17T01:05:42.348Z,68.60
2022-08-17T01:06:49.752Z,69.00
2022-08-17T01:07:54.074Z,68.75
2022-08-17T01:08:59.701Z,68.75
2022-08-17T01:10:06.998Z,68.55
2022-08-17T01:11:10.548Z,68.84
2022-08-17T01:12:13.553Z,69.12
2022-08-17T01:13:17.321Z,69.27
2022-08-17T01:14:25.116Z,69.25
2022-08-17T01:15:29.354Z,69.48
2022-08-17T01:16:32.877Z,69.53
2022-08-17T01:17:35.885Z,69.62
2022-08-17T01:18:47.592Z,69.38
2022-08-17T01:19:50.883Z,69.57
2022-08-17T01:20:56.015Z,69.57
2022-08-17T01:21:58.877Z,69.91
2022-08-17T01:23:02.869Z,70.00
2022-08-17T01:24:06.155Z,69.74
2022-08-17T01:25:11.965Z,69.81
2022-08-17T01:26:15.048Z,70.01
2022-08-17T01:27:20.672Z,69.97
2022-08-17T01:28:52.449Z,69.78
2022-08-17T01:29:53.803Z,69.85
2022-08-17T01:30:59.495Z,69.84
2022-08-17T01:32:07.221Z,69.40
2022-08-17T01:33:11.825Z,68.96
2022-08-17T01:34:16.488Z,68.79
2022-08-17T01:35:19.606Z,68.51
2022-08-17T01:36:22.763Z,68.52
2022-08-17T01:37:35.573Z,68.65
2022-08-17T01:38:39.863Z,68.68
2022-08-17T01:39:50.683Z,68.69
2022-08-17T01:41:00.433Z,68.92
2022-08-17T01:42:26.363Z,68.90
2022-08-17T01:43:35.209Z,68.69
2022-08-17T01:44:38.581Z,68.45
2022-08-17T01:45:49.811Z,68.55
2022-08-17T01:47:06.495Z,68.61
2022-08-17T01:48:09.423Z,68.68
2022-08-17T01:49:13.189Z,68.72
2022-08-17T01:50:19.536Z,68.71
2022-08-17T01:51:22.703Z,68.36
2022-08-17T01:52:25.750Z,68.20
2022-08-17T01:53:35.071Z,68.20
2022-08-17T01:54:41.816Z,68.35
2022-08-17T01:55:50.833Z,68.33
2022-08-17T01:56:53.810Z,68.58
2022-08-17T01:57:58.176Z,68.52
2022-08-17T01:59:01.998Z,68.81
2022-08-17T02:00:09.896Z,68.93
2022-08-17T02:01:15.019Z,69.31
2022-08-17T02:02:30.435Z,69.63
2022-08-17T02:03:36.894Z,69.80
2022-08-17T02:04:39.714Z,69.70
2022-08-17T02:05:42.808Z,70.10
2022-08-17T02:06:54.228Z,69.69
2022-08-17T02:08:00.313Z,69.59
2022-08-17T02:09:16.466Z,69.65
2022-08-17T02:10:20.519Z,69.71
2022-08-17T02:11:23.470Z,69.42
2022-08-17T02:12:38.973Z,69.44
2022-08-17T02:13:44.367Z,70.21
2022-08-17T02:14:47.315Z,70.19
2022-08-17T02:15:50.229Z,70.67
2022-08-17T02:16:54.186Z,71.10
2022-08-17T02:17:57.903Z,71.06
2022-08-17T02:19:01.836Z,71.21
2022-08-17T02:20:05.720Z,71.24
2022-08-17T02:21:09.366Z,71.22
2022-08-17T02:22:12.788Z,70.65
2022-08-17T02:23:16.065Z,70.73
2022-08-17T02:25:00.784Z,71.06
2022-08-17T02:25:53.367Z,71.04
2022-08-17T02:26:56.363Z,70.56
2022-08-17T02:28:00.814Z,69.96
2022-08-17T02:29:04.692Z,70.15
2022-08-17T02:30:59.370Z,69.67
2022-08-17T02:31:35.823Z,69.82
2022-08-17T02:32:38.693Z,70.69
2022-08-17T02:33:43.662Z,69.97
2022-08-17T02:34:47.665Z,70.30
2022-08-17T02:35:50.728Z,70.09
2022-08-17T02:36:53.845Z,70.39
2022-08-17T02:37:56.760Z,70.43
2022-08-17T02:39:00.448Z,70.69
2022-08-17T02:40:04.634Z,70.66
2022-08-17T02:41:08.549Z,70.66
2022-08-17T02:42:13.397Z,71.04
2022-08-17T02:43:16.657Z,70.96
2022-08-17T02:44:39.705Z,71.01
2022-08-17T02:45:44.384Z,71.33
2022-08-17T02:46:47.357Z,71.61
2022-08-17T02:47:54.681Z,72.02
2022-08-17T02:48:58.055Z,71.81
2022-08-17T02:50:01.125Z,71.74
2022-08-17T02:51:04.133Z,71.50
2022-08-17T02:52:08.478Z,72.07
2022-08-17T02:53:11.438Z,72.01
2022-08-17T02:54:40.318Z,72.25
2022-08-17T02:55:40.555Z,72.51
2022-08-17T02:56:43.500Z,72.51
2022-08-17T02:57:47.057Z,72.49
2022-08-17T02:58:50.329Z,72.86
2022-08-17T02:59:53.554Z,72.61
2022-08-17T03:00:56.616Z,72.43
2022-08-17T03:02:00.234Z,72.29
2022-08-17T03:03:05.964Z,72.10
2022-08-17T03:04:09.059Z,72.20
2022-08-17T03:05:13.576Z,72.11
2022-08-17T03:06:16.972Z,71.97
2022-08-17T03:07:20.578Z,72.01
2022-08-17T03:08:25.767Z,72.00
2022-08-17T03:09:28.629Z,72.48
2022-08-17T03:10:31.914Z,72.36
2022-08-17T03:11:35.700Z,72.77
2022-08-17T03:12:42.420Z,72.73
2022-08-17T03:13:46.191Z,72.92
2022-08-17T03:14:49.148Z,73.57
2022-08-17T03:15:52.342Z,73.11
2022-08-17T03:16:55.192Z,72.62
2022-08-17T03:17:59.198Z,72.12
2022-08-17T03:19:02.282Z,72.14
2022-08-17T03:20:07.991Z,71.76
2022-08-17T03:21:11.334Z,71.70
2022-08-17T03:22:36.971Z,71.99
2022-08-17T03:23:41.479Z,72.09
2022-08-17T03:24:44.608Z,71.90
2022-08-17T03:25:47.819Z,71.62
2022-08-17T03:26:56.365Z,71.49
2022-08-17T03:27:59.302Z,71.50
2022-08-17T03:29:05.926Z,71.33
2022-08-17T03:30:10.938Z,71.23
2022-08-17T03:31:14.854Z,71.42
2022-08-17T03:32:17.932Z,71.32
2022-08-17T03:33:21.062Z,71.19
2022-08-17T03:34:24.013Z,71.49
2022-08-17T03:35:30.773Z,71.49
2022-08-17T03:36:36.147Z,71.61
2022-08-17T03:37:39.728Z,71.63
2022-08-17T03:38:42.780Z,71.63
2022-08-17T03:39:47.996Z,72.09
2022-08-17T03:40:57.810Z,71.76
2022-08-17T03:42:31.370Z,71.70
2022-08-17T03:43:41.674Z,71.75
2022-08-17T03:44:52.529Z,71.44
2022-08-17T03:46:34.045Z,71.02
2022-08-17T03:47:57.178Z,71.02
2022-08-17T03:49:18.707Z,70.81
2022-08-17T03:50:40.989Z,71.03
2022-08-17T03:52:02.318Z,70.99
2022-08-17T03:53:34.300Z,70.62
2022-08-17T03:55:02.544Z,70.77
2022-08-17T03:56:24.837Z,71.14
2022-08-17T03:57:28.207Z,70.96
2022-08-17T03:59:38.589Z,71.30
2022-08-17T04:00:44.032Z,71.54
2022-08-17T04:01:50.393Z,71.70
2022-08-17T04:02:56.327Z,71.81
2022-08-17T04:03:59.378Z,71.76
2022-08-17T04:05:02.366Z,71.45
2022-08-17T04:06:05.815Z,71.51
2022-08-17T04:07:09.108Z,71.36
2022-08-17T04:08:13.660Z,71.67
2022-08-17T04:09:16.861Z,71.51
2022-08-17T04:10:22.704Z,71.18
2022-08-17T04:11:28.998Z,70.81
2022-08-17T04:12:50.437Z,71.13
2022-08-17T04:13:53.712Z,71.22
2022-08-17T04:14:57.114Z,71.36
2022-08-17T04:16:00.186Z,71.08
2022-08-17T04:17:03.163Z,71.07
2022-08-17T04:18:07.538Z,71.37
2022-08-17T04:19:11.593Z,71.31
2022-08-17T04:20:16.903Z,71.37
2022-08-17T04:21:20.867Z,70.92
2022-08-17T04:22:30.753Z,70.76
2022-08-17T04:23:38.443Z,70.45
2022-08-17T04:24:41.323Z,70.62
2022-08-17T04:25:49.349Z,70.38
2022-08-17T04:26:54.573Z,69.77
2022-08-17T04:27:58.374Z,69.93
2022-08-17T04:29:01.269Z,70.15
2022-08-17T04:30:07.584Z,70.35
2022-08-17T04:31:13.179Z,70.52
2022-08-17T04:32:16.215Z,70.52
2022-08-17T04:33:22.811Z,71.04
2022-08-17T04:34:25.744Z,71.12
2022-08-17T04:35:32.081Z,70.90
2022-08-17T04:36:35.715Z,70.79
2022-08-17T04:37:38.568Z,70.79
2022-08-17T04:38:43.657Z,70.21
2022-08-17T04:40:06.473Z,69.95
2022-08-17T04:41:30.782Z,70.30
2022-08-17T04:42:33.627Z,70.72
2022-08-17T04:43:39.027Z,70.73
2022-08-17T04:44:41.844Z,70.35
2022-08-17T04:45:55.701Z,70.79
2022-08-17T04:47:18.002Z,70.50
2022-08-17T04:48:21.159Z,70.26
2022-08-17T04:49:24.074Z,70.35
2022-08-17T04:50:27.466Z,70.15
2022-08-17T04:51:33.375Z,70.14
2022-08-17T04:52:46.445Z,70.35
2022-08-17T04:53:54.461Z,70.13
2022-08-17T04:54:58.050Z,70.20
2022-08-17T04:56:01.027Z,69.95
2022-08-17T04:57:04.042Z,69.79
2022-08-17T04:58:07.962Z,69.74
2022-08-17T04:59:15.850Z,69.53
2022-08-17T05:00:19.405Z,69.15
2022-08-17T05:01:24.760Z,69.16
2022-08-17T05:02:27.732Z,69.29
2022-08-17T05:03:30.878Z,70.15
2022-08-17T05:04:35.440Z,70.01
2022-08-17T05:05:49.993Z,69.19
2022-08-17T05:06:54.815Z,68.70
2022-08-17T05:08:04.720Z,67.46
2022-08-17T05:09:08.103Z,66.98
2022-08-17T05:10:11.261Z,68.04
2022-08-17T05:11:14.714Z,66.94
2022-08-17T05:12:17.620Z,66.40
2022-08-17T05:13:25.627Z,65.95
2022-08-17T05:14:32.989Z,65.36
2022-08-17T05:15:38.689Z,66.62
2022-08-17T05:16:49.587Z,65.82
2022-08-17T05:17:52.601Z,65.49
2022-08-17T05:18:58.864Z,65.61
2022-08-17T05:20:04.931Z,64.97
2022-08-17T05:21:08.747Z,64.49
2022-08-17T05:22:11.567Z,64.49
2022-08-17T05:23:16.869Z,63.78
2022-08-17T05:24:38.977Z,63.41
2022-08-17T05:25:47.451Z,64.30
2022-08-17T05:26:50.964Z,64.85
2022-08-17T05:27:55.934Z,65.19
2022-08-17T05:29:02.446Z,64.34
2022-08-17T05:30:06.338Z,64.09
2022-08-17T05:31:09.688Z,64.10
2022-08-17T05:32:38.550Z,63.56
2022-08-17T05:33:45.191Z,62.99
2022-08-17T05:34:52.918Z,62.83
2022-08-17T05:35:58.523Z,63.52
2022-08-17T05:37:01.476Z,63.01
2022-08-17T05:38:05.727Z,62.46
2022-08-17T05:39:08.813Z,61.82
2022-08-17T05:40:21.120Z,60.57
2022-08-17T05:41:24.079Z,60.11
2022-08-17T05:42:27.152Z,60.24
2022-08-17T05:43:33.470Z,59.85
2022-08-17T05:44:36.307Z,59.59
2022-08-17T05:45:55.691Z,59.22
2022-08-17T05:47:00.207Z,58.79
2022-08-17T05:48:03.701Z,58.24
2022-08-17T05:49:08.667Z,57.93
2022-08-17T05:50:25.756Z,58.20
2022-08-17T05:51:41.399Z,58.66
2022-08-17T05:52:50.365Z,59.04
2022-08-17T05:54:21.944Z,57.73
2022-08-17T05:55:32.759Z,59.34
2022-08-17T05:56:56.458Z,58.87
2022-08-17T05:58:08.001Z,59.22
2022-08-17T05:59:42.356Z,57.20
2022-08-17T06:00:58.963Z,57.51
2022-08-17T06:02:19.707Z,57.10
2022-08-17T06:03:56.746Z,56.51
2022-08-17T06:05:29.555Z,56.78
2022-08-17T06:07:21.371Z,56.24
2022-08-17T06:09:03.359Z,55.75
2022-08-17T06:10:12.197Z,56.20
2022-08-17T06:11:15.182Z,55.21
2022-08-17T06:12:40.973Z,54.67
2022-08-17T06:14:01.912Z,54.46
2022-08-17T06:15:31.134Z,53.98
2022-08-17T06:16:42.336Z,54.48
2022-08-17T06:17:45.856Z,53.62
2022-08-17T06:19:00.210Z,53.68
2022-08-17T06:20:08.416Z,53.32
2022-08-17T06:21:15.834Z,53.02
2022-08-17T06:22:22.686Z,52.32
2022-08-17T06:23:46.618Z,52.32
2022-08-17T06:25:05.275Z,52.66
2022-08-17T06:26:39.722Z,52.43
2022-08-17T06:27:54.100Z,51.61
2022-08-17T06:29:03.068Z,53.13
2022-08-17T06:30:28.662Z,52.01
2022-08-17T06:31:52.373Z,51.57
2022-08-17T06:32:59.837Z,51.57
2022-08-17T06:34:07.407Z,50.79
2022-08-17T06:35:14.116Z,50.22
2022-08-17T06:36:41.266Z,49.79
2022-08-17T06:38:02.428Z,50.38
2022-08-17T06:39:36.174Z,50.22
2022-08-17T06:41:07.573Z,50.69
2022-08-17T06:42:55.041Z,49.57
2022-08-17T06:44:49.812Z,49.47
2022-08-17T06:45:43.732Z,47.59
2022-08-17T06:46:51.815Z,46.34
2022-08-17T06:48:09.558Z,46.24
2022-08-17T06:49:30.738Z,46.80
2022-08-17T06:50:46.818Z,47.43
2022-08-17T06:52:45.281Z,46.90
2022-08-17T06:54:03.054Z,46.52
2022-08-17T06:55:18.575Z,45.70
2022-08-17T06:56:53.443Z,45.28
2022-08-17T06:58:05.883Z,44.23
2022-08-17T06:59:25.506Z,43.86
2022-08-17T07:00:33.866Z,44.18
2022-08-17T07:02:57.109Z,44.59
2022-08-17T07:04:21.657Z,44.16
2022-08-17T07:05:34.202Z,42.71
2022-08-17T07:06:52.732Z,43.59
2022-08-17T07:08:18.898Z,43.52
2022-08-17T07:09:36.125Z,42.70
2022-08-17T07:11:00.872Z,42.73
2022-08-17T07:12:16.171Z,42.43
2022-08-17T07:13:31.597Z,42.46
2022-08-17T07:14:46.688Z,43.48
2022-08-17T07:15:57.083Z,42.69
2022-08-17T07:17:06.648Z,42.22
2022-08-17T07:18:11.362Z,42.35
2022-08-17T07:19:17.427Z,41.85
2022-08-17T07:20:22.750Z,43.39
2022-08-17T07:22:08.885Z,43.01
2022-08-17T07:23:19.521Z,43.29
2022-08-17T07:24:38.313Z,42.44
2022-08-17T07:25:41.439Z,42.59
2022-08-17T07:26:44.458Z,42.04
2022-08-17T07:28:00.028Z,42.07
2022-08-17T07:29:03.253Z,42.36
2022-08-17T07:30:11.367Z,41.98
2022-08-17T07:31:17.610Z,41.62
2022-08-17T07:32:32.545Z,41.55
2022-08-17T07:33:37.062Z,42.46
2022-08-17T07:35:22.308Z,41.59
2022-08-17T07:36:30.089Z,40.79
2022-08-17T07:37:37.889Z,40.87
2022-08-17T07:38:59.085Z,41.37
2022-08-17T07:40:22.542Z,41.61
2022-08-17T07:41:25.798Z,41.46
2022-08-17T07:43:23.572Z,40.79
2022-08-17T07:44:27.385Z,40.65
2022-08-17T07:45:53.516Z,39.55
2022-08-17T07:47:15.986Z,39.09
2022-08-17T07:48:23.654Z,38.52
2022-08-17T07:49:32.799Z,38.64
2022-08-17T07:50:35.774Z,39.01
2022-08-17T07:51:57.377Z,40.19
2022-08-17T07:53:21.177Z,38.45
2022-08-17T07:54:41.503Z,38.05
2022-08-17T07:55:45.639Z,37.67
2022-08-17T07:56:55.573Z,37.02
2022-08-17T07:58:00.355Z,37.25
2022-08-17T07:59:25.298Z,36.17
2022-08-17T08:00:33.953Z,37.02
2022-08-17T08:01:39.428Z,35.48
2022-08-17T08:02:58.731Z,36.78
2022-08-17T08:04:02.679Z,37.05
2022-08-17T08:05:50.420Z,36.26
2022-08-17T08:06:53.376Z,36.31
2022-08-17T08:08:00.953Z,35.42
2022-08-17T08:09:04.056Z,35.70
2022-08-17T08:10:37.034Z,35.84
2022-08-17T08:11:44.096Z,35.69
2022-08-17T08:13:01.084Z,35.62
2022-08-17T08:14:29.917Z,36.22
2022-08-17T08:15:39.498Z,36.16
2022-08-17T08:16:59.415Z,35.36
2022-08-17T08:18:53.270Z,35.47
2022-08-17T08:19:43.692Z,35.28
2022-08-17T08:20:53.943Z,34.81
2022-08-17T08:22:05.137Z,33.96
2022-08-17T08:23:42.967Z,32.70
2022-08-17T08:24:59.208Z,32.64
2022-08-17T08:26:26.827Z,32.41
2022-08-17T08:28:17.338Z,33.55
2022-08-17T08:29:30.303Z,32.07
2022-08-17T08:30:46.924Z,33.11
2022-08-17T08:32:12.488Z,32.50
2022-08-17T08:33:29.113Z,32.72
2022-08-17T08:35:03.238Z,32.32
2022-08-17T08:36:57.065Z,31.60
2022-08-17T08:37:53.164Z,31.36
2022-08-17T08:39:06.683Z,30.12
2022-08-17T08:40:56.162Z,29.85
2022-08-17T08:42:26.614Z,30.41
2022-08-17T08:43:29.572Z,31.76
2022-08-17T08:44:59.899Z,31.45
2022-08-17T08:46:13.194Z,29.83
2022-08-17T08:47:55.502Z,28.15
2022-08-17T08:50:01.341Z,27.30
2022-08-17T08:51:21.226Z,26.39
2022-08-17T08:53:08.732Z,27.71
2022-08-17T08:54:26.735Z,28.10
2022-08-17T08:55:47.781Z,27.36
2022-08-17T08:57:23.263Z,26.87
2022-08-17T08:58:42.318Z,26.43
2022-08-17T09:00:15.537Z,25.90
2022-08-17T09:01:33.100Z,26.36
2022-08-17T09:02:39.355Z,25.98
2022-08-17T09:04:19.938Z,26.38
2022-08-17T09:05:54.401Z,27.14
2022-08-17T09:07:23.506Z,27.18
2022-08-17T09:08:38.830Z,26.92
2022-08-17T09:09:56.180Z,26.29
2022-08-17T09:11:20.071Z,26.42
2022-08-17T09:12:59.204Z,25.39
2022-08-17T09:14:22.018Z,25.35
2022-08-17T09:15:39.634Z,25.51
2022-08-17T09:17:00.890Z,25.69
2022-08-17T09:19:00.150Z,26.45
2022-08-17T09:19:46.870Z,26.44
2022-08-17T09:20:58.551Z,26.01
2022-08-17T09:22:12.354Z,25.33
2022-08-17T09:23:45.560Z,26.75
2022-08-17T09:25:01.154Z,26.43
2022-08-17T09:26:17.400Z,26.28
2022-08-17T09:27:31.043Z,26.01
2022-08-17T09:28:38.146Z,26.39
2022-08-17T09:29:50.136Z,26.14
2022-08-17T09:31:02.712Z,26.24
2022-08-17T09:32:20.458Z,24.91
2022-08-17T09:33:27.925Z,26.27
2022-08-17T09:34:37.819Z,26.12
2022-08-17T09:35:52.957Z,26.64
2022-08-17T09:37:32.878Z,27.02
2022-08-17T09:39:00.337Z,26.54
2022-08-17T09:40:21.734Z,26.32
2022-08-17T09:41:48.921Z,25.82
2022-08-17T09:43:16.813Z,24.98
2022-08-17T09:44:31.399Z,26.88
2022-08-17T09:45:46.004Z,27.03
2022-08-17T09:47:15.181Z,25.46
2022-08-17T09:48:32.025Z,24.80
2022-08-17T09:49:45.096Z,25.52
2022-08-17T09:51:03.183Z,24.63
2022-08-17T09:52:23.556Z,25.10
2022-08-17T09:53:26.793Z,25.46
2022-08-17T09:54:39.836Z,25.86
2022-08-17T09:55:55.239Z,26.27
2022-08-17T09:57:27.974Z,25.05
2022-08-17T09:59:03.789Z,24.36
2022-08-17T10:00:27.260Z,24.35
2022-08-17T10:01:46.493Z,24.33
2022-08-17T10:03:04.776Z,24.89
2022-08-17T10:04:20.255Z,24.57
2022-08-17T10:05:57.758Z,25.75
2022-08-17T10:07:15.806Z,24.64
2022-08-17T10:08:34.094Z,24.26
2022-08-17T10:09:46.273Z,24.69
2022-08-17T10:12:09.936Z,25.52
2022-08-17T10:13:16.645Z,24.96
2022-08-17T10:14:44.035Z,25.21
2022-08-17T10:16:19.589Z,24.68
2022-08-17T10:17:58.153Z,24.12
2022-08-17T10:19:15.774Z,24.07
2022-08-17T10:20:48.769Z,23.96
2022-08-17T10:22:34.600Z,24.79
2022-08-17T10:23:58.214Z,24.45
2022-08-17T10:25:24.840Z,24.10
2022-08-17T10:26:43.081Z,23.46
2022-08-17T10:28:09.030Z,24.36
2022-08-17T10:29:31.580Z,22.85
2022-08-17T10:31:16.583Z,22.65
2022-08-17T10:33:13.868Z,23.43
2022-08-17T10:34:25.707Z,23.77
2022-08-17T10:35:52.462Z,21.56
2022-08-17T10:37:12.532Z,21.81
2022-08-17T10:38:30.271Z,21.10
2022-08-17T10:40:11.585Z,21.92
2022-08-17T10:41:24.331Z,21.88
2022-08-17T10:42:35.208Z,22.16
2022-08-17T10:44:39.516Z,23.24
2022-08-17T10:46:14.539Z,22.13
2022-08-17T10:47:27.232Z,20.81
2022-08-17T10:48:37.018Z,21.32
2022-08-17T10:49:54.160Z,20.88
2022-08-17T10:51:00.141Z,21.42
2022-08-17T10:52:24.091Z,21.37
2022-08-17T10:53:40.890Z,21.72
2022-08-17T10:55:13.278Z,21.63
2022-08-17T10:56:20.025Z,21.47
2022-08-17T10:57:32.097Z,21.34
2022-08-17T10:58:58.239Z,20.90
2022-08-17T11:00:16.180Z,20.34
2022-08-17T11:01:19.087Z,21.30
2022-08-17T11:02:26.265Z,21.78
2022-08-17T11:03:33.350Z,22.26
2022-08-17T11:04:55.801Z,22.65
2022-08-17T11:06:18.560Z,22.01
2022-08-17T11:08:17.437Z,21.63
2022-08-17T11:10:15.633Z,21.47
2022-08-17T11:12:06.976Z,21.77
2022-08-17T11:13:23.525Z,22.15
2022-08-17T11:14:52.403Z,21.37
2022-08-17T11:16:10.035Z,21.76
2022-08-17T11:17:39.161Z,22.06
2022-08-17T11:19:11.113Z,23.50
2022-08-17T11:20:50.881Z,24.03
2022-08-17T11:22:33.568Z,24.87
2022-08-17T11:24:02.998Z,25.17
2022-08-17T11:25:44.032Z,25.51
2022-08-17T11:27:04.103Z,25.92
2022-08-17T11:28:24.990Z,26.98
2022-08-17T11:30:04.374Z,28.03
2022-08-17T11:31:38.361Z,27.17
2022-08-17T11:32:47.330Z,27.68
2022-08-17T11:34:21.870Z,28.79
2022-08-17T11:35:38.997Z,27.89
2022-08-17T11:36:52.113Z,28.14
2022-08-17T11:38:28.552Z,27.15
2022-08-17T11:40:06.075Z,26.75
2022-08-17T11:41:18.200Z,26.89
2022-08-17T11:42:25.909Z,25.98
2022-08-17T11:43:43.869Z,26.41
2022-08-17T11:45:31.611Z,25.88
2022-08-17T11:47:25.277Z,26.35
2022-08-17T11:49:18.919Z,26.15
2022-08-17T11:50:49.281Z,26.05
2022-08-17T11:52:08.463Z,25.63
2022-08-17T11:53:39.348Z,26.71
2022-08-17T11:54:45.504Z,26.86
2022-08-17T11:55:54.203Z,25.51
2022-08-17T11:57:00.771Z,25.31
2022-08-17T11:58:31.262Z,24.26
2022-08-17T11:59:36.364Z,24.36
2022-08-17T12:00:45.484Z,23.87
2022-08-17T12:01:56.941Z,23.46
2022-08-17T12:03:22.805Z,22.92
2022-08-17T12:04:32.669Z,22.92
2022-08-17T12:05:37.352Z,22.53
2022-08-17T12:06:45.666Z,22.40
2022-08-17T12:07:56.884Z,21.52
2022-08-17T12:09:35.225Z,22.47
2022-08-17T12:11:09.087Z,22.21
2022-08-17T12:12:19.904Z,21.82
2022-08-17T12:13:30.616Z,22.27
2022-08-17T12:15:09.471Z,22.74
2022-08-17T12:16:16.830Z,23.34
2022-08-17T12:17:41.669Z,23.86
2022-08-17T12:19:02.796Z,23.70
2022-08-17T12:20:21.654Z,24.49
2022-08-17T12:21:27.069Z,24.96
2022-08-17T12:22:36.531Z,24.66
2022-08-17T12:24:13.614Z,24.87
2022-08-17T12:25:37.004Z,26.10
2022-08-17T12:26:44.242Z,25.96
2022-08-17T12:28:05.008Z,24.16
2022-08-17T12:29:18.132Z,25.02
2022-08-17T12:30:39.140Z,23.48
2022-08-17T12:31:49.125Z,22.31
2022-08-17T12:32:52.291Z,22.00
2022-08-17T12:33:56.357Z,22.07
2022-08-17T12:34:59.451Z,21.69
2022-08-17T12:36:05.910Z,21.64
2022-08-17T12:37:32.471Z,20.71
2022-08-17T12:38:38.264Z,21.37
2022-08-17T12:39:58.937Z,20.82
2022-08-17T12:41:22.329Z,19.88
2022-08-17T12:42:37.574Z,20.15
2022-08-17T12:43:40.602Z,20.29
2022-08-17T12:44:49.629Z,20.07
2022-08-17T12:46:13.127Z,20.39
2022-08-17T12:47:22.747Z,20.35
2022-08-17T12:48:34.710Z,20.98
2022-08-17T12:49:39.598Z,20.38
2022-08-17T12:50:46.078Z,19.56
2022-08-17T12:51:50.788Z,20.01
2022-08-17T12:52:59.891Z,19.58
2022-08-17T12:54:04.400Z,19.41
2022-08-17T12:55:32.700Z,19.63
2022-08-17T12:56:37.819Z,20.61
2022-08-17T12:57:54.651Z,19.30
2022-08-17T12:58:58.097Z,19.89
2022-08-17T13:00:10.581Z,20.66
2022-08-17T13:01:18.393Z,21.23
2022-08-17T13:02:30.410Z,20.69
2022-08-17T13:03:43.102Z,20.50
2022-08-17T13:04:46.616Z,21.07
2022-08-17T13:05:52.498Z,20.98
2022-08-17T13:06:59.649Z,21.75
2022-08-17T13:08:26.470Z,20.80
2022-08-17T13:09:35.431Z,20.71
2022-08-17T13:10:44.373Z,19.98
2022-08-17T13:12:00.143Z,19.79
2022-08-17T13:13:06.233Z,20.21
2022-08-17T13:14:10.873Z,20.61
2022-08-17T13:15:44.532Z,20.51
2022-08-17T13:17:00.960Z,20.92
2022-08-17T13:18:09.971Z,20.11
2022-08-17T13:19:39.704Z,19.55
2022-08-17T13:20:53.734Z,19.66
2022-08-17T13:21:59.735Z,19.61
2022-08-17T13:23:11.951Z,19.24
2022-08-17T13:24:20.449Z,19.59
2022-08-17T13:25:24.470Z,20.37
2022-08-17T13:26:31.498Z,19.95
2022-08-17T13:27:34.607Z,20.05
2022-08-17T13:28:38.442Z,20.95
2022-08-17T13:29:45.082Z,20.75
2022-08-17T13:31:42.851Z,19.96
2022-08-17T13:32:57.573Z,20.42
2022-08-17T13:34:24.475Z,20.18
2022-08-17T13:35:45.884Z,19.75
2022-08-17T13:37:33.175Z,20.11
2022-08-17T13:38:49.814Z,20.16
2022-08-17T13:40:10.814Z,20.11
2022-08-17T13:41:34.917Z,19.96
2022-08-17T13:42:54.801Z,20.36
2022-08-17T13:43:57.867Z,19.65
2022-08-17T13:45:02.032Z,20.43
2022-08-17T13:46:31.636Z,19.89
2022-08-17T13:47:34.874Z,19.27
2022-08-17T13:48:40.618Z,19.77
2022-08-17T13:49:48.811Z,19.16
2022-08-17T13:50:58.039Z,19.40
2022-08-17T13:52:01.794Z,19.33
2022-08-17T13:53:37.025Z,18.84
2022-08-17T13:54:41.130Z,18.92
2022-08-17T13:56:04.114Z,19.17
2022-08-17T13:57:20.547Z,17.96
2022-08-17T13:58:33.746Z,18.85
2022-08-17T13:59:54.688Z,19.19
2022-08-17T14:00:58.630Z,19.32
2022-08-17T14:02:02.969Z,19.62
2022-08-17T14:03:06.190Z,19.62
2022-08-17T14:04:19.226Z,19.71
2022-08-17T14:05:22.181Z,20.07
2022-08-17T14:06:51.616Z,19.30
2022-08-17T14:08:06.597Z,19.48
2022-08-17T14:09:10.218Z,19.88
2022-08-17T14:10:18.426Z,19.44
2022-08-17T14:11:23.683Z,19.38
2022-08-17T14:12:29.615Z,19.50
2022-08-17T14:13:32.559Z,19.58
2022-08-17T14:14:36.645Z,19.43
2022-08-17T14:15:54.711Z,18.93
2022-08-17T14:16:59.545Z,19.29
2022-08-17T14:18:02.495Z,18.93
2022-08-17T14:19:06.205Z,19.48
2022-08-17T14:20:12.503Z,18.80
2022-08-17T14:21:15.553Z,18.51
2022-08-17T14:22:32.458Z,19.35
2022-08-17T14:23:37.146Z,19.47
2022-08-17T14:24:44.616Z,19.21
2022-08-17T14:25:48.180Z,20.16
2022-08-17T14:26:55.340Z,19.81
2022-08-17T14:28:04.871Z,20.01
2022-08-17T14:29:14.915Z,20.09
2022-08-17T14:30:20.261Z,19.90
2022-08-17T14:31:23.290Z,19.99
2022-08-17T14:32:31.374Z,19.81
2022-08-17T14:33:35.230Z,19.48
2022-08-17T14:34:38.217Z,20.17
2022-08-17T14:35:41.273Z,19.90
2022-08-17T14:36:48.456Z,20.21
2022-08-17T14:37:53.307Z,20.36
2022-08-17T14:39:00.276Z,20.58
2022-08-17T14:40:07.489Z,20.61
2022-08-17T14:41:12.059Z,21.42
2022-08-17T14:42:15.771Z,21.71
2022-08-17T14:43:18.999Z,21.42
2022-08-17T14:44:22.021Z,21.30
2022-08-17T14:45:31.926Z,21.30
2022-08-17T14:46:36.654Z,20.99
2022-08-17T14:47:41.141Z,20.48
2022-08-17T14:48:44.906Z,20.72
2022-08-17T14:49:48.825Z,21.12
2022-08-17T14:50:52.275Z,21.29
2022-08-17T14:51:55.246Z,21.10
2022-08-17T14:52:59.200Z,21.57
2022-08-17T14:54:05.432Z,20.86
2022-08-17T14:55:09.693Z,21.21
2022-08-17T14:56:13.722Z,21.86
2022-08-17T14:57:33.212Z,21.60
2022-08-17T14:58:42.868Z,21.68
2022-08-17T14:59:46.192Z,22.19
2022-08-17T15:00:51.614Z,21.79
2022-08-17T15:01:54.746Z,21.50
2022-08-17T15:03:00.321Z,21.96
2022-08-17T15:04:03.435Z,21.35
2022-08-17T15:05:07.438Z,21.65
2022-08-17T15:06:12.368Z,20.92
2022-08-17T15:07:15.755Z,20.71
2022-08-17T15:08:22.767Z,20.91
2022-08-17T15:09:25.808Z,21.03
2022-08-17T15:10:30.350Z,21.49
2022-08-17T15:11:33.384Z,20.91
2022-08-17T15:12:37.055Z,20.92
2022-08-17T15:13:52.926Z,21.45
2022-08-17T15:14:57.325Z,21.62
2022-08-17T15:16:04.267Z,21.60
2022-08-17T15:17:07.333Z,21.36
2022-08-17T15:18:10.799Z,21.11
2022-08-17T15:19:20.243Z,21.94
2022-08-17T15:20:28.308Z,21.76
2022-08-17T15:21:31.428Z,21.36
2022-08-17T15:22:34.326Z,21.11
2022-08-17T15:23:41.260Z,21.54
2022-08-17T15:24:46.673Z,21.32
2022-08-17T15:25:52.831Z,20.93
2022-08-17T15:26:56.012Z,21.15
2022-08-17T15:28:00.754Z,21.41
2022-08-17T15:29:04.061Z,21.65
2022-08-17T15:30:08.813Z,21.19
2022-08-17T15:31:11.961Z,21.54
2022-08-17T15:32:29.824Z,21.35
2022-08-17T15:33:33.152Z,21.87
2022-08-17T15:34:36.844Z,22.93
2022-08-17T15:35:40.087Z,22.83
2022-08-17T15:36:49.129Z,23.04
2022-08-17T15:37:56.490Z,21.99
2022-08-17T15:39:00.770Z,22.06
2022-08-17T15:40:05.676Z,21.79
2022-08-17T15:41:15.344Z,22.19
2022-08-17T15:42:20.383Z,22.43
2022-08-17T15:43:34.943Z,23.00